GSGTS EGPF-EGPR

Flight info

Callsign GSGTS
Flight time 0h 47m
Altitude 8000
Route CLYDE Q602 BRUCE DCT TIR
Aircraft DHC6/L-SDFGR/C

Departure

Time 2026-04-28 16:56
Airport Glasgow Airport (EGPF)

Arrival

Time 2026-04-28 17:43
Airport Barra Airport (EGPR)
Time Latitude Longitude Altitude Speed Heading
2026-04-28 16:45 55.86576 -4.42973 26 ft 0 kts 249°
2026-04-28 16:51 55.86599 -4.42960 26 ft 11 kts 53°
2026-04-28 16:51 55.86675 -4.42934 26 ft 14 kts 349°
2026-04-28 16:51 55.86787 -4.42992 26 ft 18 kts 346°
2026-04-28 16:52 55.86830 -4.43114 26 ft 18 kts 256°
2026-04-28 16:52 55.86796 -4.43339 26 ft 20 kts 253°
2026-04-28 16:52 55.86756 -4.43590 26 ft 8 kts 254°
2026-04-28 16:52 55.86731 -4.43743 26 ft 16 kts 245°
2026-04-28 16:53 55.86652 -4.43904 26 ft 19 kts 226°
2026-04-28 16:53 55.86614 -4.43990 26 ft 7 kts 284°
2026-04-28 16:53 55.86618 -4.44063 26 ft 0 kts 268°
2026-04-28 16:55 55.86617 -4.44106 26 ft 9 kts 271°
2026-04-28 16:56 55.86645 -4.44277 26 ft 17 kts 332°
2026-04-28 16:56 55.86816 -4.44029 27 ft 68 kts 46°
2026-04-28 16:56 55.87217 -4.43260 327 ft 95 kts 50°
2026-04-28 16:56 55.87642 -4.42421 815 ft 95 kts 51°
2026-04-28 16:57 55.88110 -4.41546 1262 ft 100 kts 46°
2026-04-28 16:57 55.88629 -4.40737 1731 ft 101 kts 42°
2026-04-28 16:57 55.89227 -4.40213 2269 ft 98 kts 13°
2026-04-28 16:57 55.89857 -4.40625 2724 ft 110 kts 324°
2026-04-28 16:58 55.90291 -4.41805 3118 ft 119 kts 303°
2026-04-28 16:58 55.90586 -4.43041 3785 ft 96 kts 297°
2026-04-28 16:58 55.90790 -4.44146 4195 ft 102 kts 295°
2026-04-28 16:58 55.91039 -4.45378 4544 ft 112 kts 299°
2026-04-28 16:59 55.91390 -4.46706 4863 ft 122 kts 302°
2026-04-28 16:59 55.91719 -4.48218 5119 ft 137 kts 287°
2026-04-28 16:59 55.91943 -4.49833 5522 ft 135 kts 288°
2026-04-28 16:59 55.92170 -4.51422 5887 ft 134 kts 289°
2026-04-28 17:00 55.92409 -4.53032 6227 ft 136 kts 289°
2026-04-28 17:00 55.92651 -4.54657 6562 ft 137 kts 290°
2026-04-28 17:00 55.92897 -4.56291 6894 ft 138 kts 290°
2026-04-28 17:00 55.93145 -4.57937 7209 ft 140 kts 291°
2026-04-28 17:01 55.93396 -4.59604 7528 ft 140 kts 291°
2026-04-28 17:01 55.93651 -4.61279 7849 ft 140 kts 291°
2026-04-28 17:01 55.93908 -4.62983 8158 ft 142 kts 292°
2026-04-28 17:01 55.94165 -4.64689 8445 ft 143 kts 292°
2026-04-28 17:02 55.94447 -4.66516 8469 ft 164 kts 291°
2026-04-28 17:02 55.94650 -4.67863 8467 ft 174 kts 290°
2026-04-28 17:02 55.95084 -4.70753 8459 ft 187 kts 290°
2026-04-28 17:02 55.95426 -4.73026 8462 ft 192 kts 289°
2026-04-28 17:03 55.96122 -4.77692 8454 ft 198 kts 289°
2026-04-28 17:03 55.96552 -4.80000 8443 ft 195 kts 303°
2026-04-28 17:03 55.97137 -4.82219 8429 ft 196 kts 301°
2026-04-28 17:04 55.98312 -4.86599 8421 ft 196 kts 299°
2026-04-28 17:04 55.98896 -4.88786 8427 ft 196 kts 299°
2026-04-28 17:05 56.00066 -4.93199 8426 ft 197 kts 300°
2026-04-28 17:05 56.00648 -4.95404 8428 ft 197 kts 300°
2026-04-28 17:05 56.01232 -4.97614 8433 ft 198 kts 300°
2026-04-28 17:06 56.02410 -5.02082 8431 ft 198 kts 301°
2026-04-28 17:06 56.02994 -5.04300 8422 ft 198 kts 301°
2026-04-28 17:06 56.04166 -5.08751 8418 ft 197 kts 300°
2026-04-28 17:07 56.04744 -5.10961 8431 ft 198 kts 301°
2026-04-28 17:07 56.05336 -5.13214 8430 ft 199 kts 300°
2026-04-28 17:07 56.05920 -5.15440 8422 ft 199 kts 300°
2026-04-28 17:07 56.06512 -5.17691 8430 ft 199 kts 300°
2026-04-28 17:08 56.07095 -5.19920 8424 ft 199 kts 300°
2026-04-28 17:08 56.07677 -5.22146 8421 ft 199 kts 300°
2026-04-28 17:08 56.08268 -5.24400 8417 ft 199 kts 300°
2026-04-28 17:08 56.08852 -5.26638 8415 ft 198 kts 300°
2026-04-28 17:09 56.09439 -5.28886 8419 ft 198 kts 300°
2026-04-28 17:09 56.10021 -5.31119 8418 ft 198 kts 300°
2026-04-28 17:09 56.10601 -5.33359 8426 ft 199 kts 300°
2026-04-28 17:09 56.11190 -5.35623 8422 ft 198 kts 300°
2026-04-28 17:10 56.11768 -5.37854 8423 ft 198 kts 300°
2026-04-28 17:10 56.12349 -5.40092 8444 ft 198 kts 300°
2026-04-28 17:10 56.12934 -5.42349 8436 ft 199 kts 300°
2026-04-28 17:10 56.13516 -5.44590 8429 ft 199 kts 300°
2026-04-28 17:11 56.14099 -5.46843 8426 ft 200 kts 300°
2026-04-28 17:11 56.14680 -5.49093 8423 ft 199 kts 300°
2026-04-28 17:11 56.15266 -5.51361 8410 ft 199 kts 300°
2026-04-28 17:11 56.15841 -5.53596 8433 ft 198 kts 300°
2026-04-28 17:12 56.16416 -5.55831 8430 ft 198 kts 300°
2026-04-28 17:12 56.16999 -5.58099 8424 ft 199 kts 300°
2026-04-28 17:12 56.17574 -5.60336 8426 ft 198 kts 300°
2026-04-28 17:12 56.18148 -5.62571 8434 ft 199 kts 300°
2026-04-28 17:13 56.18731 -5.64844 8435 ft 200 kts 300°
2026-04-28 17:13 56.19318 -5.67127 8396 ft 199 kts 298°
2026-04-28 17:13 56.19892 -5.69375 8441 ft 197 kts 299°
2026-04-28 17:13 56.20475 -5.71659 8440 ft 199 kts 299°
2026-04-28 17:14 56.21052 -5.73914 8433 ft 200 kts 299°
2026-04-28 17:14 56.21631 -5.76190 8437 ft 200 kts 299°
2026-04-28 17:14 56.22214 -5.78474 8428 ft 200 kts 299°
2026-04-28 17:14 56.22789 -5.80729 8425 ft 199 kts 299°
2026-04-28 17:15 56.23369 -5.83007 8429 ft 199 kts 299°
2026-04-28 17:15 56.23941 -5.85264 8423 ft 199 kts 299°
2026-04-28 17:15 56.24511 -5.87509 8450 ft 199 kts 299°
2026-04-28 17:15 56.25090 -5.89792 8425 ft 200 kts 299°
2026-04-28 17:16 56.25661 -5.92051 8429 ft 199 kts 299°
2026-04-28 17:16 56.26231 -5.94302 8425 ft 199 kts 299°
2026-04-28 17:16 56.26809 -5.96578 8439 ft 199 kts 299°
2026-04-28 17:16 56.27383 -5.98857 8441 ft 200 kts 299°
2026-04-28 17:17 56.27956 -6.01122 8434 ft 200 kts 299°
2026-04-28 17:17 56.28527 -6.03384 8412 ft 200 kts 299°
2026-04-28 17:17 56.29100 -6.05661 8444 ft 199 kts 299°
2026-04-28 17:17 56.29667 -6.07919 8430 ft 199 kts 299°
2026-04-28 17:18 56.30235 -6.10182 8428 ft 199 kts 299°
2026-04-28 17:18 56.30803 -6.12449 8434 ft 199 kts 299°
2026-04-28 17:18 56.31378 -6.14738 8434 ft 199 kts 299°
2026-04-28 17:18 56.31945 -6.16998 8428 ft 199 kts 298°
2026-04-28 17:19 56.32516 -6.19290 8422 ft 199 kts 299°
2026-04-28 17:19 56.33078 -6.21534 8433 ft 199 kts 299°
2026-04-28 17:19 56.33651 -6.23824 8421 ft 199 kts 299°
2026-04-28 17:19 56.34215 -6.26086 8432 ft 199 kts 298°
2026-04-28 17:20 56.34778 -6.28343 8421 ft 199 kts 298°
2026-04-28 17:20 56.35160 -6.29875 8425 ft 198 kts 299°
2026-04-28 17:20 56.35903 -6.32870 8433 ft 198 kts 299°
2026-04-28 17:20 56.36472 -6.35154 8443 ft 198 kts 299°
2026-04-28 17:21 56.37032 -6.37413 8427 ft 199 kts 299°
2026-04-28 17:21 56.37598 -6.39698 8428 ft 199 kts 298°
2026-04-28 17:21 56.38159 -6.41962 8428 ft 199 kts 299°
2026-04-28 17:22 56.39278 -6.46485 8448 ft 196 kts 299°
2026-04-28 17:22 56.39830 -6.48721 8434 ft 197 kts 299°
2026-04-28 17:22 56.40391 -6.50992 8439 ft 197 kts 299°
2026-04-28 17:23 56.41502 -6.55509 8442 ft 198 kts 299°
2026-04-28 17:23 56.42063 -6.57783 8443 ft 198 kts 298°
2026-04-28 17:23 56.42617 -6.60043 8442 ft 198 kts 299°
2026-04-28 17:23 56.43178 -6.62327 8443 ft 198 kts 299°
2026-04-28 17:24 56.43732 -6.64588 8443 ft 198 kts 298°
2026-04-28 17:24 56.44291 -6.66870 8441 ft 198 kts 298°
2026-04-28 17:24 56.44851 -6.69164 8441 ft 198 kts 298°
2026-04-28 17:24 56.45388 -6.71363 8440 ft 198 kts 298°
2026-04-28 17:25 56.45940 -6.73623 8441 ft 198 kts 297°
2026-04-28 17:25 56.47053 -6.78188 8441 ft 198 kts 298°
2026-04-28 17:25 56.47612 -6.80480 8441 ft 198 kts 297°
2026-04-28 17:26 56.48161 -6.82741 8441 ft 198 kts 298°
2026-04-28 17:26 56.48719 -6.85034 8442 ft 198 kts 298°
2026-04-28 17:26 56.49299 -6.87256 8434 ft 195 kts 307°
2026-04-28 17:26 56.50351 -6.88623 8438 ft 185 kts 338°
2026-04-28 17:27 56.51454 -6.89804 8441 ft 185 kts 338°
2026-04-28 17:27 56.52578 -6.90984 8441 ft 185 kts 336°
2026-04-28 17:27 56.53693 -6.92152 8442 ft 186 kts 335°
2026-04-28 17:27 56.54825 -6.93338 8441 ft 187 kts 335°
2026-04-28 17:28 56.55939 -6.94508 8442 ft 187 kts 334°
2026-04-28 17:28 56.58203 -6.96893 8441 ft 188 kts 335°
2026-04-28 17:28 56.59318 -6.98070 8441 ft 188 kts 335°
2026-04-28 17:29 56.60451 -6.99266 8441 ft 188 kts 334°
2026-04-28 17:29 56.61580 -7.00462 8441 ft 188 kts 334°
2026-04-28 17:29 56.62693 -7.01647 8441 ft 188 kts 335°
2026-04-28 17:30 56.64948 -7.04036 8441 ft 188 kts 335°
2026-04-28 17:30 56.67203 -7.06425 8441 ft 188 kts 335°
2026-04-28 17:30 56.68335 -7.07627 8452 ft 188 kts 334°
2026-04-28 17:31 56.69456 -7.08817 8440 ft 188 kts 335°
2026-04-28 17:31 56.71713 -7.11219 8443 ft 187 kts 335°
2026-04-28 17:32 56.73965 -7.13621 8439 ft 188 kts 335°
2026-04-28 17:32 56.75099 -7.14830 8437 ft 188 kts 334°
2026-04-28 17:32 56.76229 -7.16036 8432 ft 187 kts 334°
2026-04-28 17:32 56.77341 -7.17222 8452 ft 188 kts 334°
2026-04-28 17:33 56.78474 -7.18434 8450 ft 188 kts 334°
2026-04-28 17:33 56.79601 -7.19637 8456 ft 190 kts 334°
2026-04-28 17:33 56.80747 -7.20863 8433 ft 190 kts 335°
2026-04-28 17:33 56.81501 -7.21672 8428 ft 189 kts 335°
2026-04-28 17:34 56.83007 -7.23285 8425 ft 188 kts 335°
2026-04-28 17:34 56.84133 -7.24494 8439 ft 186 kts 335°
2026-04-28 17:34 56.85265 -7.25709 8378 ft 189 kts 334°
2026-04-28 17:34 56.86402 -7.26888 8005 ft 187 kts 337°
2026-04-28 17:35 56.87528 -7.27828 7820 ft 168 kts 345°
2026-04-28 17:35 56.88583 -7.28479 7638 ft 156 kts 347°
2026-04-28 17:35 56.89589 -7.29006 7483 ft 144 kts 352°
2026-04-28 17:35 56.90574 -7.29394 7151 ft 148 kts 355°
2026-04-28 17:36 56.91600 -7.29787 6931 ft 157 kts 350°
2026-04-28 17:36 56.92683 -7.30446 6751 ft 168 kts 343°
2026-04-28 17:36 56.93784 -7.31296 6518 ft 178 kts 340°
2026-04-28 17:36 56.94942 -7.32302 6155 ft 190 kts 338°
2026-04-28 17:37 56.96173 -7.33352 5650 ft 202 kts 340°
2026-04-28 17:37 56.97429 -7.34261 5059 ft 192 kts 343°
2026-04-28 17:37 56.98667 -7.35054 4432 ft 188 kts 345°
2026-04-28 17:37 56.99905 -7.35688 3687 ft 191 kts 349°
2026-04-28 17:38 57.01152 -7.36403 3076 ft 186 kts 339°
2026-04-28 17:38 57.02287 -7.37458 2581 ft 176 kts 333°
2026-04-28 17:38 57.03295 -7.38521 2265 ft 163 kts 331°
2026-04-28 17:38 57.04242 -7.39548 1880 ft 154 kts 330°
2026-04-28 17:39 57.04773 -7.40971 1636 ft 132 kts 269°
2026-04-28 17:39 57.04350 -7.42166 1296 ft 101 kts 221°
2026-04-28 17:39 57.03389 -7.43603 705 ft 86 kts 198°
2026-04-28 17:40 57.02802 -7.43839 339 ft 85 kts 222°
2026-04-28 17:40 57.02564 -7.44746 154 ft 75 kts 248°
2026-04-28 17:40 57.02459 -7.45744 308 ft 98 kts 287°
2026-04-28 17:40 57.03007 -7.46488 488 ft 110 kts 354°
2026-04-28 17:41 57.03650 -7.46123 378 ft 94 kts 59°
2026-04-28 17:41 57.03623 -7.45101 361 ft 80 kts 126°
2026-04-28 17:41 57.03138 -7.44713 242 ft 76 kts 173°
2026-04-28 17:41 57.02639 -7.44772 59 ft 70 kts 199°
2026-04-28 17:42 57.02050 -7.44536 267 ft 119 kts 133°
2026-04-28 17:42 57.01941 -7.43520 557 ft 130 kts 81°
2026-04-28 17:42 57.02379 -7.41604 619 ft 105 kts 53°
2026-04-28 17:42 57.02924 -7.41275 574 ft 93 kts 321°
2026-04-28 17:43 57.03037 -7.42330 323 ft 83 kts 263°
2026-04-28 17:43 57.02889 -7.43292 215 ft 77 kts 249°
2026-04-28 17:43 57.02693 -7.44194 67 ft 75 kts 246°
2026-04-28 17:43 57.02493 -7.44875 7 ft 38 kts 211°
2026-04-28 17:44 57.02370 -7.44928 7 ft 14 kts 163°
2026-04-28 17:44 57.02347 -7.44914 7 ft 1 kts 159°
2026-04-28 17:44 57.02406 -7.44901 7 ft 22 kts 357°
2026-04-28 17:44 57.02523 -7.44868 7 ft 8 kts
2026-04-28 17:45 57.02542 -7.44875 8 ft 1 kts 117°